Time;durP1;ratioP1;P1;durP2;ratioP2;P2;SDS_P1;SDS_P2;PMS_P1;PMS_P2;Temp;Humidity;BMP_temperature;BMP_pressure;BME280_temperature;BME280_humidity;BME280_pressure;Samples;Min_cycle;Max_cycle;Signal;HPM_P1;HPM_P2
2022/11/09 00:02:17;;;;;;;0.85;0.60;;;13.40;99.90;;;;;;5094765;28;20483;-73
2022/11/09 00:04:44;;;;;;;0.80;0.60;;;13.30;99.90;;;;;;5094459;28;20417;-73
2022/11/09 00:07:11;;;;;;;1.00;0.63;;;13.30;99.90;;;;;;5094683;28;20472;-72
2022/11/09 00:09:38;;;;;;;1.10;0.70;;;13.30;99.90;;;;;;5094481;28;20418;-71
2022/11/09 00:12:06;;;;;;;1.57;0.70;;;13.30;99.90;;;;;;5095059;28;20725;-72
2022/11/09 00:14:33;;;;;;;0.90;0.60;;;13.30;99.90;;;;;;5094187;28;20421;-73
2022/11/09 00:17:00;;;;;;;0.80;0.60;;;13.30;99.90;;;;;;5093945;28;20477;-72
2022/11/09 00:19:29;;;;;;;1.15;0.60;;;13.30;99.90;;;;;;5095763;28;20987;-72
2022/11/09 00:21:55;;;;;;;0.90;0.60;;;13.30;99.90;;;;;;5095537;28;20429;-71
2022/11/09 00:24:22;;;;;;;1.30;0.60;;;13.40;99.90;;;;;;5095778;28;20442;-72
2022/11/09 00:26:49;;;;;;;1.55;0.50;;;13.50;99.90;;;;;;5094906;28;20518;-71
2022/11/09 00:29:16;;;;;;;1.05;0.70;;;13.50;99.90;;;;;;5094524;28;20530;-71
2022/11/09 00:31:43;;;;;;;0.90;0.60;;;13.50;99.90;;;;;;5092204;28;20426;-72
2022/11/09 00:34:10;;;;;;;1.75;0.70;;;13.50;99.90;;;;;;5088323;28;20859;-72
2022/11/09 00:36:38;;;;;;;0.93;0.70;;;13.50;99.90;;;;;;5094061;28;20868;-72
2022/11/09 00:39:05;;;;;;;1.60;0.70;;;13.40;99.90;;;;;;5094403;28;20493;-71
2022/11/09 00:41:32;;;;;;;1.27;0.55;;;13.40;99.90;;;;;;5095044;28;20426;-72
2022/11/09 00:43:59;;;;;;;1.60;0.60;;;13.50;99.90;;;;;;5096242;28;20505;-72
2022/11/09 00:46:27;;;;;;;0.93;0.60;;;13.50;99.90;;;;;;5096133;28;20414;-72
2022/11/09 00:48:55;;;;;;;1.80;0.60;;;13.50;99.90;;;;;;5095745;28;20459;-72
2022/11/09 00:51:22;;;;;;;0.90;0.60;;;13.50;99.90;;;;;;5095613;28;20589;-74
2022/11/09 00:53:53;;;;;;;1.90;0.60;;;13.50;99.90;;;;;;5096116;28;20545;-72
2022/11/09 00:56:20;;;;;;;1.50;0.60;;;13.50;99.90;;;;;;5095283;28;20479;-72
2022/11/09 00:58:47;;;;;;;1.40;0.60;;;13.50;99.90;;;;;;5095947;28;20434;-72
2022/11/09 01:01:17;;;;;;;1.35;0.60;;;13.50;99.90;;;;;;5094534;28;20890;-72
2022/11/09 01:03:45;;;;;;;1.50;0.60;;;13.50;99.90;;;;;;5093852;28;20831;-72
2022/11/09 01:06:15;;;;;;;1.65;0.60;;;13.50;99.90;;;;;;5095096;28;20468;-72
2022/11/09 01:08:42;;;;;;;0.80;0.60;;;13.50;99.90;;;;;;5094755;28;20487;-72
2022/11/09 01:11:11;;;;;;;0.80;0.60;;;13.50;99.90;;;;;;5095132;28;20467;-72
2022/11/09 01:13:39;;;;;;;0.80;0.60;;;13.50;99.90;;;;;;5095572;28;20721;-73
2022/11/09 01:16:09;;;;;;;1.25;0.60;;;13.40;99.90;;;;;;5097789;28;20460;-72
2022/11/09 01:18:36;;;;;;;0.80;0.60;;;13.40;99.90;;;;;;5086286;28;20443;-72
2022/11/09 01:21:04;;;;;;;1.00;0.50;;;13.50;99.90;;;;;;5078754;28;20486;-72
2022/11/09 01:23:31;;;;;;;1.50;0.70;;;13.50;99.90;;;;;;5078859;28;20465;-72
2022/11/09 01:25:59;;;;;;;0.80;0.60;;;13.50;99.90;;;;;;5078841;28;20458;-73
2022/11/09 01:28:27;;;;;;;1.70;0.65;;;13.40;99.90;;;;;;5079185;28;20839;-72
2022/11/09 01:30:55;;;;;;;1.02;0.60;;;13.50;99.90;;;;;;5070924;28;20520;-72
2022/11/09 01:33:22;;;;;;;1.00;0.60;;;13.50;99.90;;;;;;5078654;28;20462;-71
2022/11/09 01:35:49;;;;;;;1.10;0.60;;;13.50;99.90;;;;;;5078469;28;20779;-72
2022/11/09 01:38:16;;;;;;;0.90;0.60;;;13.50;99.90;;;;;;5078477;28;20917;-72
2022/11/09 01:40:43;;;;;;;1.10;0.68;;;13.40;99.90;;;;;;5078357;28;20508;-73
2022/11/09 01:43:16;;;;;;;1.33;0.60;;;13.40;99.90;;;;;;5095978;28;20465;-73
2022/11/09 01:45:48;;;;;;;1.00;0.70;;;13.50;99.90;;;;;;5098763;28;20418;-71
2022/11/09 01:48:20;;;;;;;1.30;0.60;;;13.40;99.90;;;;;;5098568;28;21116;-72
2022/11/09 01:50:51;;;;;;;0.90;0.60;;;13.40;99.90;;;;;;5098386;28;20453;-71
2022/11/09 01:53:22;;;;;;;0.80;0.60;;;13.50;99.90;;;;;;5098554;28;20434;-71
2022/11/09 01:55:52;;;;;;;1.10;0.60;;;13.50;99.90;;;;;;5098213;28;20476;-71
2022/11/09 01:58:24;;;;;;;0.77;0.55;;;13.50;99.90;;;;;;5098093;28;20845;-72
2022/11/09 02:00:56;;;;;;;1.30;0.68;;;13.50;99.90;;;;;;5098874;28;20454;-72
2022/11/09 02:03:27;;;;;;;0.90;0.60;;;13.40;99.90;;;;;;5098740;28;20457;-71
2022/11/09 02:05:54;;;;;;;0.90;0.60;;;13.40;99.90;;;;;;5098353;28;20424;-72
2022/11/09 02:08:24;;;;;;;1.30;0.50;;;13.40;99.90;;;;;;5098264;28;20421;-71
2022/11/09 02:11:00;;;;;;;0.87;0.60;;;13.40;99.90;;;;;;5097820;28;20422;-71
2022/11/09 02:13:29;;;;;;;1.17;0.60;;;13.40;99.90;;;;;;5098064;28;20426;-71
2022/11/09 02:15:58;;;;;;;0.90;0.60;;;13.40;99.90;;;;;;5097897;28;20459;-72
2022/11/09 02:18:26;;;;;;;1.10;0.50;;;13.50;99.90;;;;;;5098506;28;20869;-72
2022/11/09 02:20:56;;;;;;;1.00;0.60;;;13.50;99.90;;;;;;5098177;28;20421;-71
2022/11/09 02:23:25;;;;;;;1.17;0.60;;;13.50;99.90;;;;;;5098163;28;20530;-72
2022/11/09 02:25:56;;;;;;;1.10;0.50;;;13.50;99.90;;;;;;5098103;28;20418;-72
2022/11/09 02:28:25;;;;;;;0.90;0.60;;;13.50;99.90;;;;;;5096741;28;20457;-72
2022/11/09 02:30:55;;;;;;;2.10;0.60;;;13.50;99.90;;;;;;5097820;28;20479;-72
2022/11/09 02:33:22;;;;;;;0.80;0.60;;;13.50;99.90;;;;;;5097839;28;20425;-72
2022/11/09 02:35:49;;;;;;;1.30;0.53;;;13.50;99.90;;;;;;5097785;28;20478;-72
2022/11/09 02:38:17;;;;;;;0.90;0.50;;;13.50;99.90;;;;;;5097918;28;20426;-73
2022/11/09 02:40:48;;;;;;;1.00;0.50;;;13.60;99.90;;;;;;5098116;28;20426;-73
2022/11/09 02:43:16;;;;;;;0.70;0.50;;;13.80;99.90;;;;;;5098047;28;20457;-72
2022/11/09 02:45:43;;;;;;;0.70;0.50;;;13.90;99.90;;;;;;5097971;28;20433;-73
2022/11/09 02:48:10;;;;;;;0.70;0.50;;;14.00;99.90;;;;;;5098139;28;20471;-72
2022/11/09 02:50:37;;;;;;;1.52;0.50;;;14.10;99.90;;;;;;5097600;28;20428;-72
2022/11/09 02:53:05;;;;;;;0.90;0.50;;;14.10;99.90;;;;;;5098136;28;20429;-72
2022/11/09 02:55:33;;;;;;;1.30;0.50;;;14.10;99.90;;;;;;5097532;28;20429;-72
2022/11/09 02:58:00;;;;;;;1.30;0.40;;;14.20;99.90;;;;;;5097360;28;20434;-73
2022/11/09 03:00:27;;;;;;;0.93;0.40;;;14.20;99.90;;;;;;5097592;28;20467;-72
2022/11/09 03:02:54;;;;;;;0.90;0.50;;;14.20;99.90;;;;;;5097408;28;20483;-72
2022/11/09 03:05:21;;;;;;;0.80;0.50;;;14.30;99.90;;;;;;5097323;28;20457;-72
2022/11/09 03:07:48;;;;;;;0.70;0.40;;;14.30;99.90;;;;;;5097652;28;20507;-72
2022/11/09 03:10:15;;;;;;;0.90;0.57;;;14.40;99.90;;;;;;5097331;28;20784;-72
2022/11/09 03:12:43;;;;;;;1.08;0.57;;;14.40;99.90;;;;;;5097350;28;20465;-72
2022/11/09 03:15:11;;;;;;;1.65;0.60;;;14.40;99.90;;;;;;5096930;28;20772;-72
2022/11/09 03:17:38;;;;;;;1.30;0.77;;;14.20;99.90;;;;;;5096801;28;20437;-72
2022/11/09 03:20:06;;;;;;;1.20;0.70;;;14.00;99.90;;;;;;5096717;28;20429;-72
2022/11/09 03:22:33;;;;;;;0.90;0.60;;;13.80;99.90;;;;;;5096699;28;20433;-74
2022/11/09 03:25:00;;;;;;;0.80;0.60;;;13.70;99.90;;;;;;5097198;28;20461;-72
2022/11/09 03:27:27;;;;;;;0.90;0.53;;;13.60;1.00;;;;;;5096940;28;20421;-72
2022/11/09 03:29:55;;;;;;;1.40;0.70;;;13.60;1.00;;;;;;5096746;28;20726;-73
2022/11/09 03:32:22;;;;;;;0.90;0.70;;;13.50;1.00;;;;;;5096703;28;20453;-72
2022/11/09 03:34:50;;;;;;;1.20;0.60;;;13.40;1.00;;;;;;5096745;28;20422;-72
2022/11/09 03:37:17;;;;;;;1.30;0.70;;;13.30;1.00;;;;;;5096032;28;20422;-72
2022/11/09 03:39:44;;;;;;;0.80;0.60;;;13.20;1.00;;;;;;5096453;28;20446;-72
2022/11/09 03:42:11;;;;;;;0.95;0.60;;;13.20;1.00;;;;;;5096053;28;20463;-72
2022/11/09 03:44:38;;;;;;;1.42;0.60;;;13.10;8.90;;;;;;5096547;28;20417;-73
2022/11/09 03:47:06;;;;;;;1.23;0.80;;;12.90;27.70;;;;;;5096760;28;20421;-72
2022/11/09 03:49:33;;;;;;;1.10;0.80;;;12.80;36.90;;;;;;5096313;28;20487;-72
2022/11/09 03:52:00;;;;;;;0.93;0.70;;;12.60;59.90;;;;;;5096523;28;20465;-72
2022/11/09 03:54:27;;;;;;;1.00;0.70;;;12.40;90.70;;;;;;5096407;28;20436;-72
2022/11/09 03:56:54;;;;;;;1.30;0.70;;;12.20;97.40;;;;;;5096213;28;20517;-72
2022/11/09 03:59:20;;;;;;;2.00;1.00;;;12.10;99.90;;;;;;5096564;28;20495;-72
2022/11/09 04:01:47;;;;;;;1.80;0.80;;;12.00;99.90;;;;;;5096536;28;20832;-73
2022/11/09 04:04:16;;;;;;;3.20;0.80;;;11.80;99.90;;;;;;5096344;28;20422;-73
2022/11/09 04:06:43;;;;;;;1.20;0.80;;;11.70;99.90;;;;;;5096382;28;20425;-72
2022/11/09 04:09:10;;;;;;;1.23;0.80;;;11.70;99.90;;;;;;5096522;28;20791;-72
2022/11/09 04:11:37;;;;;;;1.40;0.80;;;11.70;99.90;;;;;;5096285;28;20910;-72
2022/11/09 04:14:04;;;;;;;3.00;0.80;;;11.70;99.90;;;;;;5096649;28;20458;-72
2022/11/09 04:16:32;;;;;;;1.75;0.90;;;11.70;99.90;;;;;;5096725;28;20445;-72
2022/11/09 04:18:59;;;;;;;1.40;0.90;;;11.80;99.90;;;;;;5096317;28;20430;-72
2022/11/09 04:21:27;;;;;;;1.60;0.80;;;11.80;99.90;;;;;;5094219;28;20475;-71
2022/11/09 04:23:54;;;;;;;1.70;0.80;;;11.90;99.90;;;;;;5093525;28;20429;-71
2022/11/09 04:26:21;;;;;;;1.65;1.00;;;11.90;99.90;;;;;;5093258;28;20519;-72
2022/11/09 04:28:48;;;;;;;1.25;0.70;;;12.00;99.90;;;;;;5092210;28;20460;-70
2022/11/09 04:31:15;;;;;;;1.02;0.80;;;12.00;99.90;;;;;;5091526;28;20479;-72
2022/11/09 04:33:41;;;;;;;1.30;0.70;;;12.00;99.90;;;;;;5093037;28;20464;-72
2022/11/09 04:36:09;;;;;;;1.10;0.80;;;12.00;99.90;;;;;;5095284;28;20841;-71
2022/11/09 04:38:37;;;;;;;1.23;0.80;;;11.90;99.90;;;;;;5095508;28;20434;-72
2022/11/09 04:41:07;;;;;;;1.10;0.70;;;11.90;99.90;;;;;;5095066;28;20583;-72
2022/11/09 04:43:34;;;;;;;1.10;0.80;;;11.90;99.90;;;;;;5095919;28;20430;-71
2022/11/09 04:46:02;;;;;;;3.60;1.10;;;11.90;99.90;;;;;;5095737;28;20457;-71
2022/11/09 04:48:29;;;;;;;1.20;0.83;;;11.80;99.90;;;;;;5095880;28;20453;-72
2022/11/09 04:51:00;;;;;;;1.60;0.90;;;11.80;99.90;;;;;;5098185;28;20472;-71
2022/11/09 04:53:27;;;;;;;1.70;0.90;;;11.80;99.90;;;;;;5100499;28;20432;-72
2022/11/09 04:55:55;;;;;;;1.67;0.80;;;11.80;99.90;;;;;;5098640;28;20898;-71
2022/11/09 04:58:23;;;;;;;1.60;0.80;;;11.70;99.90;;;;;;5110578;28;20917;-72
2022/11/09 05:00:50;;;;;;;2.10;0.90;;;11.70;99.90;;;;;;5119376;28;20424;-71
2022/11/09 05:03:17;;;;;;;2.10;1.00;;;11.60;99.90;;;;;;5119878;28;20431;-72
2022/11/09 05:05:44;;;;;;;1.70;1.00;;;11.60;99.90;;;;;;5119672;28;20455;-71
2022/11/09 05:08:11;;;;;;;1.88;0.90;;;11.50;99.90;;;;;;5119557;28;20424;-71
2022/11/09 05:10:38;;;;;;;1.30;0.90;;;11.50;99.90;;;;;;5119435;28;20417;-72
2022/11/09 05:13:10;;;;;;;2.10;1.00;;;11.40;99.90;;;;;;5119378;28;20432;-72
2022/11/09 05:15:37;;;;;;;2.50;1.00;;;11.50;99.90;;;;;;5119513;28;20885;-72
2022/11/09 05:18:04;;;;;;;2.00;0.90;;;11.40;99.90;;;;;;5119537;28;20554;-72
2022/11/09 05:20:32;;;;;;;3.00;1.00;;;11.40;99.90;;;;;;5119528;28;20794;-72
2022/11/09 05:25:45;;;;;;;1.90;0.90;;;11.60;99.90;;;;;;5119332;28;20399;-73
2022/11/09 05:28:14;;;;;;;1.30;0.98;;;11.60;99.90;;;;;;5119438;28;20463;-72
2022/11/09 05:30:41;;;;;;;1.40;0.90;;;11.50;99.90;;;;;;5119527;28;20504;-72
2022/11/09 05:33:08;;;;;;;2.80;0.90;;;11.50;99.90;;;;;;5117520;28;20731;-74
2022/11/09 05:35:35;;;;;;;2.67;0.98;;;11.40;99.90;;;;;;5117601;28;20498;-73
2022/11/09 05:38:02;;;;;;;1.10;0.90;;;11.40;99.90;;;;;;5117906;28;20529;-73
2022/11/09 05:40:29;;;;;;;3.05;1.20;;;11.50;99.90;;;;;;5118331;28;20416;-73
2022/11/09 05:42:56;;;;;;;2.10;1.00;;;11.40;99.90;;;;;;5119263;28;20896;-73
2022/11/09 05:45:25;;;;;;;1.30;0.90;;;11.40;99.90;;;;;;5118669;28;20421;-73
2022/11/09 05:47:52;;;;;;;1.55;1.00;;;11.50;99.90;;;;;;5118712;28;20447;-73
2022/11/09 05:50:19;;;;;;;1.70;0.80;;;11.60;99.90;;;;;;5119280;28;20484;-73
2022/11/09 05:52:46;;;;;;;1.38;0.90;;;11.80;99.90;;;;;;5118335;28;20481;-73
2022/11/09 05:55:13;;;;;;;1.80;0.80;;;11.80;99.90;;;;;;5117897;28;20452;-71
2022/11/09 05:57:40;;;;;;;1.33;0.98;;;11.70;99.90;;;;;;5117743;28;20455;-73
2022/11/09 06:00:08;;;;;;;1.50;0.80;;;11.70;99.90;;;;;;5118572;28;20465;-72
2022/11/09 06:02:36;;;;;;;1.52;0.82;;;11.70;99.90;;;;;;5118684;28;20917;-72
2022/11/09 06:05:04;;;;;;;1.40;0.90;;;11.70;99.90;;;;;;5118993;28;20416;-72
2022/11/09 06:07:31;;;;;;;1.65;0.80;;;11.60;99.90;;;;;;5118875;28;20592;-72
2022/11/09 06:09:57;;;;;;;1.40;0.80;;;11.60;99.90;;;;;;5118321;28;20416;-72
2022/11/09 06:12:24;;;;;;;1.05;0.80;;;11.60;99.90;;;;;;5117298;28;20451;-73
2022/11/09 06:14:51;;;;;;;1.90;0.90;;;11.60;99.90;;;;;;5116916;28;20497;-72
2022/11/09 06:17:18;;;;;;;1.50;0.80;;;11.60;99.90;;;;;;5116924;28;20421;-72
2022/11/09 06:19:47;;;;;;;1.10;0.75;;;11.60;99.90;;;;;;5114912;28;20500;-73
2022/11/09 06:22:13;;;;;;;1.10;0.73;;;11.60;99.90;;;;;;5114174;28;20728;-72
2022/11/09 06:24:40;;;;;;;1.10;0.90;;;11.70;99.90;;;;;;5115557;28;20474;-71
2022/11/09 06:27:07;;;;;;;1.60;0.80;;;11.70;99.90;;;;;;5116586;28;20977;-73
2022/11/09 06:29:34;;;;;;;1.20;0.90;;;11.70;99.90;;;;;;5116551;28;20640;-73
2022/11/09 06:32:01;;;;;;;2.47;0.80;;;11.70;99.90;;;;;;5116087;28;20481;-72
2022/11/09 06:34:29;;;;;;;3.20;0.80;;;11.70;99.90;;;;;;5116062;28;20416;-72
2022/11/09 06:36:57;;;;;;;1.65;0.90;;;11.70;99.90;;;;;;5116343;28;20443;-73
2022/11/09 06:39:24;;;;;;;1.10;0.82;;;11.70;99.90;;;;;;5115539;28;20494;-73
2022/11/09 06:41:51;;;;;;;1.23;0.80;;;11.80;99.90;;;;;;5115782;28;20463;-70
2022/11/09 06:44:18;;;;;;;2.00;1.00;;;11.80;99.90;;;;;;5115929;28;20436;-72
2022/11/09 06:46:45;;;;;;;1.58;0.95;;;11.80;99.90;;;;;;5115277;28;20424;-73
2022/11/09 06:49:12;;;;;;;1.92;1.00;;;11.70;99.90;;;;;;5114391;28;20896;-72
2022/11/09 06:51:39;;;;;;;1.30;0.90;;;11.70;99.90;;;;;;5098836;28;20503;-71
2022/11/09 06:54:08;;;;;;;1.60;0.90;;;11.60;99.90;;;;;;5095372;28;20464;-73
2022/11/09 06:56:35;;;;;;;1.20;1.00;;;11.60;99.90;;;;;;5095886;28;20430;-71
2022/11/09 06:59:02;;;;;;;1.30;0.80;;;11.60;99.90;;;;;;5095665;28;20479;-72
2022/11/09 07:01:31;;;;;;;1.95;0.90;;;11.60;99.90;;;;;;5096115;28;20431;-73
2022/11/09 07:03:57;;;;;;;1.80;0.80;;;11.60;99.90;;;;;;5094982;28;20869;-72
2022/11/09 07:06:25;;;;;;;2.50;0.90;;;11.60;99.90;;;;;;5094884;28;20421;-73
2022/11/09 07:08:55;;;;;;;1.13;0.80;;;11.70;99.90;;;;;;5084613;28;20499;-72
2022/11/09 07:11:24;;;;;;;1.40;0.90;;;11.70;99.90;;;;;;5074636;28;20567;-72
2022/11/09 07:13:52;;;;;;;1.30;0.90;;;11.70;99.90;;;;;;5087847;28;20430;-72
2022/11/09 07:16:19;;;;;;;1.40;1.00;;;11.80;99.90;;;;;;5094158;28;20479;-72
2022/11/09 07:18:46;;;;;;;1.10;0.80;;;11.80;99.90;;;;;;5095009;28;20430;-73
2022/11/09 07:21:14;;;;;;;1.67;0.90;;;11.80;99.90;;;;;;5095405;28;20457;-72
2022/11/09 07:23:42;;;;;;;1.42;0.90;;;11.80;99.90;;;;;;5095062;28;20429;-72
2022/11/09 07:26:09;;;;;;;1.30;0.80;;;12.00;99.90;;;;;;5076024;28;20491;-73
2022/11/09 07:28:37;;;;;;;1.20;0.68;;;12.00;99.90;;;;;;5074806;28;20484;-72
2022/11/09 07:31:05;;;;;;;0.90;0.60;;;12.20;99.90;;;;;;5083938;28;20742;-72
2022/11/09 07:33:32;;;;;;;1.65;0.60;;;12.30;99.90;;;;;;5092767;28;20469;-73
2022/11/09 07:36:01;;;;;;;1.60;0.70;;;12.50;99.90;;;;;;5094293;28;20793;-73
2022/11/09 07:38:29;;;;;;;0.90;0.70;;;12.50;99.90;;;;;;5094172;28;20473;-72
2022/11/09 07:41:00;;;;;;;0.90;0.60;;;12.40;99.90;;;;;;5094720;28;20869;-72
2022/11/09 07:43:27;;;;;;;1.00;0.60;;;12.40;99.90;;;;;;5092124;28;20517;-72
2022/11/09 07:45:55;;;;;;;1.00;0.60;;;12.40;99.90;;;;;;5094035;28;20910;-73
2022/11/09 07:48:23;;;;;;;0.90;0.60;;;12.30;99.90;;;;;;5094488;28;20650;-72
2022/11/09 07:50:50;;;;;;;2.00;0.80;;;12.20;99.90;;;;;;5088114;28;20422;-73
2022/11/09 07:53:17;;;;;;;1.73;0.80;;;12.20;99.90;;;;;;5095459;28;20483;-71
2022/11/09 07:55:44;;;;;;;0.93;0.70;;;12.10;99.90;;;;;;5094236;28;20791;-71
2022/11/09 07:58:13;;;;;;;1.10;0.70;;;12.20;99.90;;;;;;5093839;28;20469;-71
2022/11/09 08:00:42;;;;;;;1.00;0.60;;;12.20;99.90;;;;;;5094826;28;20422;-72
2022/11/09 08:03:11;;;;;;;0.90;0.60;;;12.30;99.90;;;;;;5094372;28;20434;-72
2022/11/09 08:05:38;;;;;;;0.90;0.60;;;12.40;99.90;;;;;;5094710;28;20494;-73
2022/11/09 08:08:09;;;;;;;1.10;0.70;;;12.40;99.90;;;;;;5094844;28;20513;-72
2022/11/09 08:10:37;;;;;;;0.93;0.60;;;12.40;99.90;;;;;;5094856;28;20422;-72
2022/11/09 08:13:07;;;;;;;1.20;0.60;;;12.40;99.90;;;;;;5093345;28;20894;-71
2022/11/09 08:15:35;;;;;;;1.00;0.70;;;12.40;99.90;;;;;;5093937;28;20476;-71
2022/11/09 08:18:03;;;;;;;1.10;0.70;;;12.30;99.90;;;;;;5094565;28;20449;-73
2022/11/09 08:20:33;;;;;;;1.80;0.80;;;12.40;99.90;;;;;;5092999;28;20814;-72
2022/11/09 08:23:00;;;;;;;1.80;0.80;;;12.30;99.90;;;;;;5091634;28;20515;-72
2022/11/09 08:25:27;;;;;;;1.30;0.90;;;12.40;99.90;;;;;;5092217;28;20426;-72
2022/11/09 08:27:56;;;;;;;1.20;0.80;;;12.40;99.90;;;;;;5090139;28;20456;-72
2022/11/09 08:30:23;;;;;;;2.20;0.80;;;12.40;99.90;;;;;;5094247;28;20796;-71
2022/11/09 08:32:51;;;;;;;2.50;0.80;;;12.40;99.90;;;;;;5090350;28;20465;-72
2022/11/09 08:35:19;;;;;;;1.00;0.70;;;12.40;99.90;;;;;;5100458;28;20426;-71
2022/11/09 08:37:50;;;;;;;1.80;0.90;;;12.50;99.90;;;;;;5092399;28;20437;-73
2022/11/09 08:40:19;;;;;;;1.10;0.80;;;12.60;99.90;;;;;;5094123;28;20434;-72
2022/11/09 08:42:46;;;;;;;1.08;0.70;;;12.60;99.90;;;;;;5090854;28;20470;-72
2022/11/09 08:45:14;;;;;;;1.17;0.80;;;12.60;99.90;;;;;;5093966;28;20422;-75
2022/11/09 08:47:42;;;;;;;1.70;0.73;;;12.60;99.90;;;;;;5094516;28;20430;-73
2022/11/09 08:50:10;;;;;;;1.40;0.70;;;12.50;99.90;;;;;;5090928;28;20507;-73
2022/11/09 08:52:37;;;;;;;1.50;0.80;;;12.60;99.90;;;;;;5092971;28;20837;-72
2022/11/09 08:55:07;;;;;;;1.10;0.70;;;12.70;99.90;;;;;;5093677;28;20445;-72
2022/11/09 08:57:34;;;;;;;0.90;0.60;;;12.80;99.90;;;;;;5084529;28;20438;-73
2022/11/09 09:00:01;;;;;;;0.90;0.60;;;12.90;99.90;;;;;;5085421;28;20520;-71
2022/11/09 09:02:28;;;;;;;1.80;0.80;;;12.90;99.90;;;;;;5087911;28;20806;-72
2022/11/09 09:04:55;;;;;;;0.90;0.60;;;13.00;99.90;;;;;;5087578;28;20442;-72
2022/11/09 09:07:22;;;;;;;0.98;0.60;;;12.90;99.90;;;;;;5093677;28;20479;-72
2022/11/09 09:09:49;;;;;;;1.08;0.65;;;12.90;99.90;;;;;;5104315;28;20469;-72
2022/11/09 09:12:17;;;;;;;1.30;0.80;;;12.90;99.90;;;;;;5114095;28;20412;-72
2022/11/09 09:14:44;;;;;;;1.20;0.50;;;13.00;99.90;;;;;;5114037;28;20443;-71
2022/11/09 09:17:11;;;;;;;1.90;0.60;;;13.00;99.90;;;;;;5109039;28;20422;-72
2022/11/09 09:19:38;;;;;;;0.90;0.50;;;13.10;99.90;;;;;;5089002;28;20437;-74
2022/11/09 09:22:05;;;;;;;1.50;0.50;;;13.20;99.90;;;;;;5077995;28;20472;-73
2022/11/09 09:24:32;;;;;;;0.90;0.50;;;13.20;99.90;;;;;;5092494;28;20537;-73
2022/11/09 09:26:59;;;;;;;1.00;0.40;;;13.20;99.90;;;;;;5092408;28;20437;-72
2022/11/09 09:29:27;;;;;;;1.00;0.40;;;13.30;99.90;;;;;;5084700;28;20475;-72
2022/11/09 09:31:54;;;;;;;0.60;0.40;;;13.20;99.90;;;;;;5100026;28;20467;-72
2022/11/09 09:34:21;;;;;;;0.60;0.40;;;13.30;99.90;;;;;;5095189;28;20442;-72
2022/11/09 09:36:52;;;;;;;1.20;0.50;;;13.30;99.90;;;;;;5092706;28;20441;-72
2022/11/09 09:39:19;;;;;;;1.10;0.40;;;13.30;99.90;;;;;;5105129;28;20495;-71
2022/11/09 09:41:51;;;;;;;1.02;0.40;;;13.30;99.90;;;;;;5100585;28;20503;-72
2022/11/09 09:44:26;;;;;;;0.60;0.30;;;13.40;99.90;;;;;;5096059;28;20460;-71
2022/11/09 09:47:04;;;;;;;0.50;0.30;;;13.30;99.90;;;;;;5088161;28;20413;-71
2022/11/09 09:49:35;;;;;;;0.68;0.30;;;13.30;99.90;;;;;;5097280;28;20422;-71
2022/11/09 09:52:12;;;;;;;0.70;0.40;;;13.30;99.90;;;;;;5104660;28;20473;-73
2022/11/09 09:54:43;;;;;;;0.70;0.30;;;13.40;99.90;;;;;;5103696;28;20483;-71
2022/11/09 09:57:17;;;;;;;0.70;0.40;;;13.50;99.90;;;;;;5096386;28;20546;-72
2022/11/09 09:59:51;;;;;;;0.70;0.30;;;13.50;99.90;;;;;;5096090;28;20897;-71
2022/11/09 10:02:24;;;;;;;0.70;0.40;;;13.60;99.90;;;;;;5083354;28;20869;-71
2022/11/09 10:04:52;;;;;;;0.60;0.30;;;13.80;99.90;;;;;;5087811;28;20879;-70
2022/11/09 10:07:25;;;;;;;0.60;0.40;;;13.90;99.90;;;;;;5090664;28;20432;-71
2022/11/09 10:10:03;;;;;;;0.90;0.30;;;14.00;99.90;;;;;;5096228;28;20418;-71
2022/11/09 10:12:39;;;;;;;0.73;0.40;;;14.10;99.90;;;;;;5094693;28;20443;-71
2022/11/09 10:15:15;;;;;;;0.60;0.30;;;14.10;99.90;;;;;;5095750;28;20773;-71
2022/11/09 10:17:55;;;;;;;0.60;0.40;;;14.00;99.90;;;;;;5093953;28;20514;-70
2022/11/09 10:20:45;;;;;;;0.70;0.40;;;13.90;99.90;;;;;;5096366;28;20713;-71
2022/11/09 10:23:36;;;;;;;0.60;0.40;;;14.00;99.90;;;;;;5094671;28;20501;-71
2022/11/09 10:26:11;;;;;;;0.80;0.40;;;14.00;99.90;;;;;;5095580;28;20433;-71
2022/11/09 10:28:46;;;;;;;0.70;0.40;;;14.20;99.90;;;;;;5095263;28;20457;-71
2022/11/09 10:31:18;;;;;;;0.70;0.40;;;14.30;99.90;;;;;;5097601;28;20872;-71
2022/11/09 10:33:52;;;;;;;0.77;0.40;;;14.40;99.90;;;;;;5096306;28;20490;-71
2022/11/09 10:36:25;;;;;;;0.60;0.40;;;14.40;99.90;;;;;;5103090;28;20420;-71
2022/11/09 10:38:56;;;;;;;0.70;0.45;;;14.60;99.90;;;;;;5096041;28;21520;-70
2022/11/09 10:41:29;;;;;;;0.65;0.40;;;14.70;99.90;;;;;;5093218;28;20426;-70
2022/11/09 10:43:56;;;;;;;0.90;0.50;;;14.70;99.90;;;;;;5097554;28;20791;-70
2022/11/09 10:46:23;;;;;;;0.80;0.40;;;14.70;99.90;;;;;;5091578;28;20441;-71
2022/11/09 10:48:52;;;;;;;0.80;0.50;;;14.80;99.90;;;;;;5083980;28;20499;-71
2022/11/09 10:51:38;;;;;;;0.90;0.40;;;14.80;99.90;;;;;;5094219;28;20775;-72
2022/11/09 10:54:16;;;;;;;1.00;0.40;;;14.80;99.90;;;;;;5092761;28;20437;-72
2022/11/09 10:56:49;;;;;;;0.80;0.50;;;14.80;99.90;;;;;;5089067;28;20709;-72
2022/11/09 10:59:39;;;;;;;0.90;0.50;;;14.80;99.90;;;;;;5092673;28;20426;-72
2022/11/09 11:02:39;;;;;;;1.23;0.40;;;14.90;99.90;;;;;;5092451;28;20475;-72
2022/11/09 11:05:30;;;;;;;0.80;0.50;;;14.90;99.90;;;;;;5087558;28;20857;-71
2022/11/09 11:07:57;;;;;;;0.88;0.40;;;14.80;99.90;;;;;;5092733;28;20465;-72
2022/11/09 11:10:25;;;;;;;0.80;0.50;;;14.80;99.90;;;;;;5092978;28;20422;-72
2022/11/09 11:13:19;;;;;;;1.00;0.50;;;15.00;99.90;;;;;;5079862;28;20428;-71
2022/11/09 11:15:46;;;;;;;0.60;0.40;;;15.10;99.90;;;;;;5100405;28;20878;-73
2022/11/09 11:18:19;;;;;;;0.70;0.40;;;15.10;99.90;;;;;;5105640;28;20457;-71
2022/11/09 11:20:47;;;;;;;0.73;0.47;;;15.10;99.90;;;;;;5089127;28;20517;-71
2022/11/09 11:23:17;;;;;;;0.80;0.40;;;15.30;99.90;;;;;;5109133;28;20847;-70
2022/11/09 11:26:03;;;;;;;1.20;0.50;;;15.50;99.90;;;;;;5099202;28;20418;-71
2022/11/09 11:28:38;;;;;;;0.80;0.50;;;15.60;99.90;;;;;;5091179;28;20441;-72
2022/11/09 11:31:11;;;;;;;0.80;0.40;;;15.60;99.90;;;;;;5094358;28;21176;-71
2022/11/09 11:33:38;;;;;;;1.30;0.70;;;15.60;99.90;;;;;;5091777;28;20433;-71
2022/11/09 11:36:16;;;;;;;0.98;0.50;;;15.50;99.90;;;;;;5092155;28;20880;-70
2022/11/09 11:38:51;;;;;;;1.17;0.60;;;15.40;99.90;;;;;;5089505;28;20857;-71
2022/11/09 11:41:39;;;;;;;1.23;0.60;;;15.40;99.90;;;;;;5097972;28;20503;-69
2022/11/09 11:44:17;;;;;;;1.48;0.70;;;15.40;99.90;;;;;;5092638;28;20501;-71
2022/11/09 11:46:47;;;;;;;2.10;0.80;;;15.40;99.90;;;;;;5090539;28;20526;-72
2022/11/09 11:49:36;;;;;;;1.13;0.80;;;15.30;99.90;;;;;;5089094;28;20428;-70
2022/11/09 11:52:12;;;;;;;1.30;0.60;;;15.30;99.90;;;;;;5086776;28;20418;-71
2022/11/09 11:54:49;;;;;;;0.80;0.50;;;15.40;99.90;;;;;;5093400;28;20425;-72
2022/11/09 11:57:23;;;;;;;1.05;0.50;;;15.40;99.90;;;;;;5087857;28;20850;-70
2022/11/09 12:00:12;;;;;;;0.93;0.50;;;15.50;99.90;;;;;;5091556;28;20434;-70
2022/11/09 12:03:06;;;;;;;0.80;0.50;;;15.50;99.90;;;;;;5085640;28;20469;-70
2022/11/09 12:05:58;;;;;;;0.70;0.45;;;15.40;99.90;;;;;;5092785;28;20433;-70
2022/11/09 12:08:36;;;;;;;1.77;0.50;;;15.50;99.90;;;;;;5106244;28;20455;-70
2022/11/09 12:11:13;;;;;;;0.80;0.50;;;15.50;99.90;;;;;;5088662;28;20710;-70
2022/11/09 12:13:54;;;;;;;1.00;0.50;;;15.50;99.90;;;;;;5091216;28;20853;-70
2022/11/09 12:16:28;;;;;;;0.82;0.50;;;15.40;99.90;;;;;;5091357;28;20429;-70
2022/11/09 12:19:14;;;;;;;0.90;0.50;;;15.30;99.90;;;;;;5096874;28;20863;-70
2022/11/09 12:21:49;;;;;;;0.60;0.40;;;15.30;99.90;;;;;;5072171;28;20521;-71
2022/11/09 12:24:24;;;;;;;0.70;0.50;;;15.40;99.90;;;;;;5087111;28;20880;-71
2022/11/09 12:27:04;;;;;;;0.90;0.50;;;15.50;99.90;;;;;;5090064;28;20917;-71
2022/11/09 12:29:39;;;;;;;1.25;0.43;;;15.50;99.90;;;;;;5092706;28;20879;-71
2022/11/09 12:32:21;;;;;;;0.80;0.50;;;15.60;99.90;;;;;;5091601;28;21009;-71
2022/11/09 12:34:55;;;;;;;0.60;0.50;;;15.60;99.90;;;;;;5100805;28;20494;-69
2022/11/09 12:37:29;;;;;;;0.80;0.50;;;15.50;99.90;;;;;;5092084;28;20514;-71
2022/11/09 12:40:07;;;;;;;0.65;0.40;;;15.50;99.90;;;;;;5093188;28;20426;-70
2022/11/09 12:42:43;;;;;;;0.50;0.40;;;15.60;99.90;;;;;;5086805;28;20525;-70
2022/11/09 12:45:20;;;;;;;1.02;0.60;;;15.60;99.90;;;;;;5079795;28;20450;-70
2022/11/09 12:47:47;;;;;;;0.70;0.50;;;15.60;99.90;;;;;;5090028;28;20461;-70
2022/11/09 12:50:16;;;;;;;0.70;0.40;;;15.60;99.90;;;;;;5088403;28;20521;-70
2022/11/09 12:52:45;;;;;;;0.90;0.50;;;15.60;99.90;;;;;;5091155;28;20531;-71
2022/11/09 12:55:18;;;;;;;0.70;0.40;;;15.70;99.90;;;;;;5092464;28;20430;-71
2022/11/09 12:57:47;;;;;;;1.70;0.50;;;15.70;99.90;;;;;;5091051;28;20458;-71
2022/11/09 13:00:44;;;;;;;0.70;0.45;;;15.80;99.90;;;;;;5092150;28;20430;-71
2022/11/09 13:03:20;;;;;;;0.60;0.40;;;15.90;99.90;;;;;;5097330;28;20965;-71
2022/11/09 13:05:48;;;;;;;0.70;0.40;;;15.90;99.90;;;;;;5093547;28;20453;-71